sensor_id;sensor_type;location;lat;lon;timestamp;P1;durP1;ratioP1;P2;durP2;ratioP2
16880;SDS011;8557;52.068;5.198;2023-01-20T00:00:04;6.25;;;5.47;;
16880;SDS011;8557;52.068;5.198;2023-01-20T00:02:32;6.88;;;5.93;;
16880;SDS011;8557;52.068;5.198;2023-01-20T00:04:59;8.32;;;5.90;;
16880;SDS011;8557;52.068;5.198;2023-01-20T00:07:27;8.10;;;6.25;;
16880;SDS011;8557;52.068;5.198;2023-01-20T00:09:53;8.35;;;6.60;;
16880;SDS011;8557;52.068;5.198;2023-01-20T00:12:20;10.57;;;7.05;;
16880;SDS011;8557;52.068;5.198;2023-01-20T00:14:47;11.32;;;8.27;;
16880;SDS011;8557;52.068;5.198;2023-01-20T00:17:14;11.50;;;8.88;;
16880;SDS011;8557;52.068;5.198;2023-01-20T00:19:41;11.60;;;9.18;;
16880;SDS011;8557;52.068;5.198;2023-01-20T00:22:07;11.73;;;9.13;;
16880;SDS011;8557;52.068;5.198;2023-01-20T00:24:35;11.25;;;8.93;;
16880;SDS011;8557;52.068;5.198;2023-01-20T00:27:02;10.43;;;8.60;;
16880;SDS011;8557;52.068;5.198;2023-01-20T00:29:30;11.65;;;9.05;;
16880;SDS011;8557;52.068;5.198;2023-01-20T00:31:56;12.20;;;8.38;;
16880;SDS011;8557;52.068;5.198;2023-01-20T00:34:23;12.13;;;9.48;;
16880;SDS011;8557;52.068;5.198;2023-01-20T00:36:50;12.25;;;9.32;;
16880;SDS011;8557;52.068;5.198;2023-01-20T00:39:17;12.27;;;9.13;;
16880;SDS011;8557;52.068;5.198;2023-01-20T00:41:45;13.20;;;10.13;;
16880;SDS011;8557;52.068;5.198;2023-01-20T00:44:12;13.27;;;10.05;;
16880;SDS011;8557;52.068;5.198;2023-01-20T00:46:38;12.77;;;10.02;;
16880;SDS011;8557;52.068;5.198;2023-01-20T00:49:05;14.23;;;10.88;;
16880;SDS011;8557;52.068;5.198;2023-01-20T00:51:32;16.58;;;10.90;;
16880;SDS011;8557;52.068;5.198;2023-01-20T00:54:14;15.45;;;11.15;;
16880;SDS011;8557;52.068;5.198;2023-01-20T00:56:41;16.75;;;12.00;;
16880;SDS011;8557;52.068;5.198;2023-01-20T00:59:09;17.50;;;13.00;;
16880;SDS011;8557;52.068;5.198;2023-01-20T01:01:36;19.30;;;13.00;;
16880;SDS011;8557;52.068;5.198;2023-01-20T01:04:03;18.80;;;13.43;;
16880;SDS011;8557;52.068;5.198;2023-01-20T01:06:30;19.17;;;13.02;;
16880;SDS011;8557;52.068;5.198;2023-01-20T01:08:57;17.67;;;13.50;;
16880;SDS011;8557;52.068;5.198;2023-01-20T01:11:23;19.33;;;13.57;;
16880;SDS011;8557;52.068;5.198;2023-01-20T01:13:50;19.42;;;14.10;;
16880;SDS011;8557;52.068;5.198;2023-01-20T01:16:18;16.77;;;13.25;;
16880;SDS011;8557;52.068;5.198;2023-01-20T01:18:45;17.75;;;13.30;;
16880;SDS011;8557;52.068;5.198;2023-01-20T01:21:13;16.83;;;12.63;;
16880;SDS011;8557;52.068;5.198;2023-01-20T01:23:41;18.33;;;13.60;;
16880;SDS011;8557;52.068;5.198;2023-01-20T01:26:08;17.48;;;13.75;;
16880;SDS011;8557;52.068;5.198;2023-01-20T01:28:35;17.92;;;13.85;;
16880;SDS011;8557;52.068;5.198;2023-01-20T01:31:03;18.80;;;13.75;;
16880;SDS011;8557;52.068;5.198;2023-01-20T01:33:33;17.98;;;13.55;;
16880;SDS011;8557;52.068;5.198;2023-01-20T01:36:01;15.52;;;12.25;;
16880;SDS011;8557;52.068;5.198;2023-01-20T01:38:28;18.00;;;13.88;;
16880;SDS011;8557;52.068;5.198;2023-01-20T01:40:56;19.13;;;13.77;;
16880;SDS011;8557;52.068;5.198;2023-01-20T01:43:23;19.15;;;14.18;;
16880;SDS011;8557;52.068;5.198;2023-01-20T01:45:51;20.90;;;15.15;;
16880;SDS011;8557;52.068;5.198;2023-01-20T01:48:19;22.85;;;15.43;;
16880;SDS011;8557;52.068;5.198;2023-01-20T01:50:51;22.95;;;15.43;;
16880;SDS011;8557;52.068;5.198;2023-01-20T01:53:21;22.90;;;15.43;;
16880;SDS011;8557;52.068;5.198;2023-01-20T01:55:49;21.45;;;15.73;;
16880;SDS011;8557;52.068;5.198;2023-01-20T01:58:20;21.25;;;14.98;;
16880;SDS011;8557;52.068;5.198;2023-01-20T02:00:49;23.63;;;16.33;;
16880;SDS011;8557;52.068;5.198;2023-01-20T02:03:17;24.80;;;16.92;;
16880;SDS011;8557;52.068;5.198;2023-01-20T02:05:45;25.15;;;16.30;;
16880;SDS011;8557;52.068;5.198;2023-01-20T02:08:15;27.63;;;17.95;;
16880;SDS011;8557;52.068;5.198;2023-01-20T02:10:42;29.90;;;17.92;;
16880;SDS011;8557;52.068;5.198;2023-01-20T02:13:09;32.80;;;19.80;;
16880;SDS011;8557;52.068;5.198;2023-01-20T02:15:37;30.40;;;18.42;;
16880;SDS011;8557;52.068;5.198;2023-01-20T02:18:16;31.50;;;18.70;;
16880;SDS011;8557;52.068;5.198;2023-01-20T02:21:09;33.38;;;19.48;;
16880;SDS011;8557;52.068;5.198;2023-01-20T02:24:10;32.83;;;20.02;;
16880;SDS011;8557;52.068;5.198;2023-01-20T02:26:59;33.40;;;20.45;;
16880;SDS011;8557;52.068;5.198;2023-01-20T02:32:35;34.72;;;20.73;;
16880;SDS011;8557;52.068;5.198;2023-01-20T02:35:07;34.90;;;21.65;;
16880;SDS011;8557;52.068;5.198;2023-01-20T02:37:39;34.97;;;21.73;;
16880;SDS011;8557;52.068;5.198;2023-01-20T02:40:17;38.25;;;22.85;;
16880;SDS011;8557;52.068;5.198;2023-01-20T02:42:55;39.45;;;21.73;;
16880;SDS011;8557;52.068;5.198;2023-01-20T02:45:28;37.17;;;22.05;;
16880;SDS011;8557;52.068;5.198;2023-01-20T02:48:02;35.17;;;21.15;;
16880;SDS011;8557;52.068;5.198;2023-01-20T02:50:39;37.47;;;22.70;;
16880;SDS011;8557;52.068;5.198;2023-01-20T02:53:09;38.63;;;22.40;;
16880;SDS011;8557;52.068;5.198;2023-01-20T02:55:39;43.35;;;24.35;;
16880;SDS011;8557;52.068;5.198;2023-01-20T02:58:10;43.60;;;25.25;;
16880;SDS011;8557;52.068;5.198;2023-01-20T03:00:43;36.50;;;22.25;;
16880;SDS011;8557;52.068;5.198;2023-01-20T03:03:16;39.40;;;23.80;;
16880;SDS011;8557;52.068;5.198;2023-01-20T03:05:48;41.97;;;22.80;;
16880;SDS011;8557;52.068;5.198;2023-01-20T03:08:20;41.42;;;23.58;;
16880;SDS011;8557;52.068;5.198;2023-01-20T03:10:49;39.92;;;23.35;;
16880;SDS011;8557;52.068;5.198;2023-01-20T03:13:20;40.90;;;22.58;;
16880;SDS011;8557;52.068;5.198;2023-01-20T03:15:55;41.97;;;23.23;;
16880;SDS011;8557;52.068;5.198;2023-01-20T03:18:25;40.08;;;23.17;;
16880;SDS011;8557;52.068;5.198;2023-01-20T03:20:54;40.72;;;22.67;;
16880;SDS011;8557;52.068;5.198;2023-01-20T03:23:22;41.92;;;22.95;;
16880;SDS011;8557;52.068;5.198;2023-01-20T03:25:50;38.30;;;21.23;;
16880;SDS011;8557;52.068;5.198;2023-01-20T03:28:16;42.17;;;23.15;;
16880;SDS011;8557;52.068;5.198;2023-01-20T03:30:43;43.67;;;23.55;;
16880;SDS011;8557;52.068;5.198;2023-01-20T03:33:10;47.63;;;23.80;;
16880;SDS011;8557;52.068;5.198;2023-01-20T03:35:40;40.95;;;22.60;;
16880;SDS011;8557;52.068;5.198;2023-01-20T03:38:08;41.92;;;21.92;;
16880;SDS011;8557;52.068;5.198;2023-01-20T03:40:36;39.22;;;21.33;;
16880;SDS011;8557;52.068;5.198;2023-01-20T03:43:09;45.47;;;23.02;;
16880;SDS011;8557;52.068;5.198;2023-01-20T03:45:45;41.45;;;23.05;;
16880;SDS011;8557;52.068;5.198;2023-01-20T03:48:22;42.25;;;21.95;;
16880;SDS011;8557;52.068;5.198;2023-01-20T03:50:55;43.55;;;23.85;;
16880;SDS011;8557;52.068;5.198;2023-01-20T03:53:28;43.65;;;22.40;;
16880;SDS011;8557;52.068;5.198;2023-01-20T03:55:59;46.20;;;23.50;;
16880;SDS011;8557;52.068;5.198;2023-01-20T03:58:31;39.90;;;22.13;;
16880;SDS011;8557;52.068;5.198;2023-01-20T04:00:59;43.67;;;23.70;;
16880;SDS011;8557;52.068;5.198;2023-01-20T04:03:31;44.33;;;24.35;;
16880;SDS011;8557;52.068;5.198;2023-01-20T04:06:04;41.47;;;22.77;;
16880;SDS011;8557;52.068;5.198;2023-01-20T04:08:33;44.47;;;23.63;;
16880;SDS011;8557;52.068;5.198;2023-01-20T04:11:02;41.53;;;23.63;;
16880;SDS011;8557;52.068;5.198;2023-01-20T04:13:31;48.78;;;24.73;;
16880;SDS011;8557;52.068;5.198;2023-01-20T04:15:58;45.25;;;25.10;;
16880;SDS011;8557;52.068;5.198;2023-01-20T04:18:27;42.47;;;23.15;;
16880;SDS011;8557;52.068;5.198;2023-01-20T04:20:55;40.97;;;23.88;;
16880;SDS011;8557;52.068;5.198;2023-01-20T04:23:28;42.65;;;24.27;;
16880;SDS011;8557;52.068;5.198;2023-01-20T04:25:58;51.92;;;24.70;;
16880;SDS011;8557;52.068;5.198;2023-01-20T04:28:25;46.33;;;25.95;;
16880;SDS011;8557;52.068;5.198;2023-01-20T04:30:52;49.13;;;25.95;;
16880;SDS011;8557;52.068;5.198;2023-01-20T04:33:19;48.20;;;26.02;;
16880;SDS011;8557;52.068;5.198;2023-01-20T04:35:45;51.92;;;27.33;;
16880;SDS011;8557;52.068;5.198;2023-01-20T04:38:12;48.30;;;25.92;;
16880;SDS011;8557;52.068;5.198;2023-01-20T04:40:40;44.80;;;24.30;;
16880;SDS011;8557;52.068;5.198;2023-01-20T04:43:07;48.53;;;25.40;;
16880;SDS011;8557;52.068;5.198;2023-01-20T04:45:36;46.65;;;24.92;;
16880;SDS011;8557;52.068;5.198;2023-01-20T04:48:04;47.70;;;24.70;;
16880;SDS011;8557;52.068;5.198;2023-01-20T04:50:32;48.03;;;24.45;;
16880;SDS011;8557;52.068;5.198;2023-01-20T04:52:59;50.25;;;25.73;;
16880;SDS011;8557;52.068;5.198;2023-01-20T04:55:25;46.90;;;24.75;;
16880;SDS011;8557;52.068;5.198;2023-01-20T04:57:54;48.10;;;25.77;;
16880;SDS011;8557;52.068;5.198;2023-01-20T05:00:20;48.95;;;25.55;;
16880;SDS011;8557;52.068;5.198;2023-01-20T05:02:47;50.60;;;25.98;;
16880;SDS011;8557;52.068;5.198;2023-01-20T05:05:14;54.72;;;26.65;;
16880;SDS011;8557;52.068;5.198;2023-01-20T05:07:41;49.20;;;26.40;;
16880;SDS011;8557;52.068;5.198;2023-01-20T05:10:08;56.63;;;27.95;;
16880;SDS011;8557;52.068;5.198;2023-01-20T05:12:36;52.40;;;26.27;;
16880;SDS011;8557;52.068;5.198;2023-01-20T05:15:04;54.35;;;26.67;;
16880;SDS011;8557;52.068;5.198;2023-01-20T05:17:32;57.17;;;27.43;;
16880;SDS011;8557;52.068;5.198;2023-01-20T05:19:58;61.15;;;29.00;;
16880;SDS011;8557;52.068;5.198;2023-01-20T05:22:25;56.17;;;28.17;;
16880;SDS011;8557;52.068;5.198;2023-01-20T05:24:52;60.17;;;29.35;;
16880;SDS011;8557;52.068;5.198;2023-01-20T05:27:19;59.35;;;28.30;;
16880;SDS011;8557;52.068;5.198;2023-01-20T05:29:46;61.30;;;29.20;;
16880;SDS011;8557;52.068;5.198;2023-01-20T05:32:14;65.00;;;30.53;;
16880;SDS011;8557;52.068;5.198;2023-01-20T05:34:41;55.63;;;28.50;;
16880;SDS011;8557;52.068;5.198;2023-01-20T05:37:07;62.13;;;28.80;;
16880;SDS011;8557;52.068;5.198;2023-01-20T05:39:34;60.80;;;29.40;;
16880;SDS011;8557;52.068;5.198;2023-01-20T05:42:01;59.42;;;30.55;;
16880;SDS011;8557;52.068;5.198;2023-01-20T05:44:28;61.92;;;30.77;;
16880;SDS011;8557;52.068;5.198;2023-01-20T05:46:55;60.67;;;28.98;;
16880;SDS011;8557;52.068;5.198;2023-01-20T05:49:23;61.97;;;29.77;;
16880;SDS011;8557;52.068;5.198;2023-01-20T05:51:50;58.13;;;28.48;;
16880;SDS011;8557;52.068;5.198;2023-01-20T05:54:17;61.20;;;28.67;;
16880;SDS011;8557;52.068;5.198;2023-01-20T05:56:46;66.05;;;28.25;;
16880;SDS011;8557;52.068;5.198;2023-01-20T05:59:13;56.08;;;28.77;;
16880;SDS011;8557;52.068;5.198;2023-01-20T06:01:40;61.10;;;29.20;;
16880;SDS011;8557;52.068;5.198;2023-01-20T06:04:06;63.42;;;29.30;;
16880;SDS011;8557;52.068;5.198;2023-01-20T06:06:35;64.30;;;29.98;;
16880;SDS011;8557;52.068;5.198;2023-01-20T06:09:01;61.55;;;28.15;;
16880;SDS011;8557;52.068;5.198;2023-01-20T06:11:29;62.80;;;29.50;;
16880;SDS011;8557;52.068;5.198;2023-01-20T06:13:55;59.40;;;29.85;;
16880;SDS011;8557;52.068;5.198;2023-01-20T06:16:22;58.75;;;29.77;;
16880;SDS011;8557;52.068;5.198;2023-01-20T06:18:49;62.47;;;29.65;;
16880;SDS011;8557;52.068;5.198;2023-01-20T06:21:16;61.00;;;30.30;;
16880;SDS011;8557;52.068;5.198;2023-01-20T06:23:44;61.20;;;29.83;;
16880;SDS011;8557;52.068;5.198;2023-01-20T06:26:11;60.35;;;29.60;;
16880;SDS011;8557;52.068;5.198;2023-01-20T06:28:38;68.40;;;29.95;;
16880;SDS011;8557;52.068;5.198;2023-01-20T06:31:06;66.65;;;30.95;;
16880;SDS011;8557;52.068;5.198;2023-01-20T06:33:35;64.13;;;30.70;;
16880;SDS011;8557;52.068;5.198;2023-01-20T06:36:02;57.67;;;28.40;;
16880;SDS011;8557;52.068;5.198;2023-01-20T06:38:30;60.55;;;28.52;;
16880;SDS011;8557;52.068;5.198;2023-01-20T06:41:01;61.03;;;30.02;;
16880;SDS011;8557;52.068;5.198;2023-01-20T06:43:29;63.83;;;29.55;;
16880;SDS011;8557;52.068;5.198;2023-01-20T06:45:59;58.08;;;29.90;;
16880;SDS011;8557;52.068;5.198;2023-01-20T06:48:26;62.30;;;29.67;;
16880;SDS011;8557;52.068;5.198;2023-01-20T06:50:58;54.55;;;28.77;;
16880;SDS011;8557;52.068;5.198;2023-01-20T06:53:26;57.63;;;28.42;;
16880;SDS011;8557;52.068;5.198;2023-01-20T06:55:53;57.03;;;27.77;;
16880;SDS011;8557;52.068;5.198;2023-01-20T06:58:23;59.90;;;29.63;;
16880;SDS011;8557;52.068;5.198;2023-01-20T07:00:50;57.53;;;28.98;;
16880;SDS011;8557;52.068;5.198;2023-01-20T07:03:17;54.88;;;27.52;;
16880;SDS011;8557;52.068;5.198;2023-01-20T07:05:49;53.55;;;28.17;;
16880;SDS011;8557;52.068;5.198;2023-01-20T07:08:19;50.88;;;27.13;;
16880;SDS011;8557;52.068;5.198;2023-01-20T07:10:46;51.35;;;27.20;;
16880;SDS011;8557;52.068;5.198;2023-01-20T07:13:13;50.42;;;26.73;;
16880;SDS011;8557;52.068;5.198;2023-01-20T07:15:41;50.92;;;26.00;;
16880;SDS011;8557;52.068;5.198;2023-01-20T07:18:08;48.05;;;25.17;;
16880;SDS011;8557;52.068;5.198;2023-01-20T07:20:35;46.65;;;24.27;;
16880;SDS011;8557;52.068;5.198;2023-01-20T07:23:03;45.92;;;25.42;;
16880;SDS011;8557;52.068;5.198;2023-01-20T07:25:30;52.95;;;27.20;;
16880;SDS011;8557;52.068;5.198;2023-01-20T07:27:57;48.75;;;25.10;;
16880;SDS011;8557;52.068;5.198;2023-01-20T07:30:24;49.67;;;26.98;;
16880;SDS011;8557;52.068;5.198;2023-01-20T07:32:52;53.08;;;25.80;;
16880;SDS011;8557;52.068;5.198;2023-01-20T07:35:19;50.28;;;25.35;;
16880;SDS011;8557;52.068;5.198;2023-01-20T07:37:46;46.83;;;26.55;;
16880;SDS011;8557;52.068;5.198;2023-01-20T07:40:13;49.70;;;25.20;;
16880;SDS011;8557;52.068;5.198;2023-01-20T07:42:40;51.45;;;26.15;;
16880;SDS011;8557;52.068;5.198;2023-01-20T07:45:07;48.38;;;25.88;;
16880;SDS011;8557;52.068;5.198;2023-01-20T07:47:34;55.22;;;27.65;;
16880;SDS011;8557;52.068;5.198;2023-01-20T07:50:03;51.95;;;26.17;;
16880;SDS011;8557;52.068;5.198;2023-01-20T07:52:30;48.25;;;25.92;;
16880;SDS011;8557;52.068;5.198;2023-01-20T07:54:57;51.05;;;25.90;;
16880;SDS011;8557;52.068;5.198;2023-01-20T07:57:24;49.28;;;25.67;;
16880;SDS011;8557;52.068;5.198;2023-01-20T07:59:51;46.85;;;26.00;;
16880;SDS011;8557;52.068;5.198;2023-01-20T08:02:17;46.00;;;24.42;;
16880;SDS011;8557;52.068;5.198;2023-01-20T08:04:44;48.38;;;24.98;;
16880;SDS011;8557;52.068;5.198;2023-01-20T08:07:12;50.60;;;26.63;;
16880;SDS011;8557;52.068;5.198;2023-01-20T08:09:39;43.53;;;24.33;;
16880;SDS011;8557;52.068;5.198;2023-01-20T08:12:08;47.45;;;25.00;;
16880;SDS011;8557;52.068;5.198;2023-01-20T08:14:34;46.88;;;25.95;;
16880;SDS011;8557;52.068;5.198;2023-01-20T08:17:01;47.35;;;25.00;;
16880;SDS011;8557;52.068;5.198;2023-01-20T08:19:28;39.50;;;22.25;;
16880;SDS011;8557;52.068;5.198;2023-01-20T08:21:55;42.28;;;24.20;;
16880;SDS011;8557;52.068;5.198;2023-01-20T08:24:23;40.85;;;23.02;;
16880;SDS011;8557;52.068;5.198;2023-01-20T08:26:50;37.70;;;21.17;;
16880;SDS011;8557;52.068;5.198;2023-01-20T08:29:17;36.20;;;20.80;;
16880;SDS011;8557;52.068;5.198;2023-01-20T08:31:44;35.00;;;20.33;;
16880;SDS011;8557;52.068;5.198;2023-01-20T08:34:10;37.03;;;21.52;;
16880;SDS011;8557;52.068;5.198;2023-01-20T08:36:39;34.95;;;20.65;;
16880;SDS011;8557;52.068;5.198;2023-01-20T08:39:08;34.88;;;21.27;;
16880;SDS011;8557;52.068;5.198;2023-01-20T08:41:37;31.55;;;19.65;;
16880;SDS011;8557;52.068;5.198;2023-01-20T08:44:08;34.30;;;20.33;;
16880;SDS011;8557;52.068;5.198;2023-01-20T08:46:35;33.65;;;20.20;;
16880;SDS011;8557;52.068;5.198;2023-01-20T08:49:05;34.10;;;20.65;;
16880;SDS011;8557;52.068;5.198;2023-01-20T08:51:32;32.92;;;20.13;;
16880;SDS011;8557;52.068;5.198;2023-01-20T08:53:59;30.60;;;19.55;;
16880;SDS011;8557;52.068;5.198;2023-01-20T08:56:26;31.73;;;20.15;;
16880;SDS011;8557;52.068;5.198;2023-01-20T08:58:56;31.23;;;19.45;;
16880;SDS011;8557;52.068;5.198;2023-01-20T09:01:23;29.75;;;19.13;;
16880;SDS011;8557;52.068;5.198;2023-01-20T09:03:52;31.85;;;19.73;;
16880;SDS011;8557;52.068;5.198;2023-01-20T09:06:19;31.05;;;19.83;;
16880;SDS011;8557;52.068;5.198;2023-01-20T09:08:47;28.73;;;18.85;;
16880;SDS011;8557;52.068;5.198;2023-01-20T09:11:14;30.65;;;19.05;;
16880;SDS011;8557;52.068;5.198;2023-01-20T09:13:42;30.40;;;18.92;;
16880;SDS011;8557;52.068;5.198;2023-01-20T09:16:11;29.80;;;18.52;;
16880;SDS011;8557;52.068;5.198;2023-01-20T09:18:39;28.10;;;18.02;;
16880;SDS011;8557;52.068;5.198;2023-01-20T09:21:06;29.02;;;18.08;;
16880;SDS011;8557;52.068;5.198;2023-01-20T09:23:33;29.85;;;18.55;;
16880;SDS011;8557;52.068;5.198;2023-01-20T09:26:01;26.80;;;18.10;;
16880;SDS011;8557;52.068;5.198;2023-01-20T09:28:29;25.10;;;16.83;;
16880;SDS011;8557;52.068;5.198;2023-01-20T09:30:56;27.48;;;17.13;;
16880;SDS011;8557;52.068;5.198;2023-01-20T09:33:25;26.48;;;16.85;;
16880;SDS011;8557;52.068;5.198;2023-01-20T09:35:53;28.23;;;17.98;;
16880;SDS011;8557;52.068;5.198;2023-01-20T09:38:20;26.52;;;17.02;;
16880;SDS011;8557;52.068;5.198;2023-01-20T09:41:02;24.52;;;16.83;;
16880;SDS011;8557;52.068;5.198;2023-01-20T09:43:57;27.77;;;16.63;;
16880;SDS011;8557;52.068;5.198;2023-01-20T09:46:37;26.25;;;16.17;;
16880;SDS011;8557;52.068;5.198;2023-01-20T09:49:33;23.52;;;16.08;;
16880;SDS011;8557;52.068;5.198;2023-01-20T09:52:26;24.80;;;16.00;;
16880;SDS011;8557;52.068;5.198;2023-01-20T09:55:16;24.65;;;16.17;;
16880;SDS011;8557;52.068;5.198;2023-01-20T09:57:49;24.15;;;15.98;;
16880;SDS011;8557;52.068;5.198;2023-01-20T10:00:27;23.58;;;15.93;;
16880;SDS011;8557;52.068;5.198;2023-01-20T10:02:56;22.95;;;15.27;;
16880;SDS011;8557;52.068;5.198;2023-01-20T10:05:32;23.17;;;15.60;;
16880;SDS011;8557;52.068;5.198;2023-01-20T10:08:04;23.17;;;15.85;;
16880;SDS011;8557;52.068;5.198;2023-01-20T10:10:34;23.02;;;14.50;;
16880;SDS011;8557;52.068;5.198;2023-01-20T10:13:05;20.80;;;15.57;;
16880;SDS011;8557;52.068;5.198;2023-01-20T10:15:45;22.48;;;15.00;;
16880;SDS011;8557;52.068;5.198;2023-01-20T10:18:16;20.48;;;13.50;;
16880;SDS011;8557;52.068;5.198;2023-01-20T10:20:52;23.25;;;15.50;;
16880;SDS011;8557;52.068;5.198;2023-01-20T10:23:25;22.38;;;14.98;;
16880;SDS011;8557;52.068;5.198;2023-01-20T10:25:59;19.35;;;13.15;;
16880;SDS011;8557;52.068;5.198;2023-01-20T10:28:33;19.42;;;12.68;;
16880;SDS011;8557;52.068;5.198;2023-01-20T10:31:03;18.98;;;13.02;;
16880;SDS011;8557;52.068;5.198;2023-01-20T10:33:31;16.60;;;12.43;;
16880;SDS011;8557;52.068;5.198;2023-01-20T10:36:03;17.15;;;12.30;;
16880;SDS011;8557;52.068;5.198;2023-01-20T10:38:35;19.88;;;13.35;;
16880;SDS011;8557;52.068;5.198;2023-01-20T10:41:10;20.48;;;14.32;;
16880;SDS011;8557;52.068;5.198;2023-01-20T10:43:42;19.38;;;13.43;;
16880;SDS011;8557;52.068;5.198;2023-01-20T10:46:14;17.60;;;12.13;;
16880;SDS011;8557;52.068;5.198;2023-01-20T10:48:59;20.58;;;13.00;;
16880;SDS011;8557;52.068;5.198;2023-01-20T10:51:45;14.77;;;10.68;;
16880;SDS011;8557;52.068;5.198;2023-01-20T10:54:21;17.20;;;11.52;;
16880;SDS011;8557;52.068;5.198;2023-01-20T10:56:52;16.63;;;12.13;;
16880;SDS011;8557;52.068;5.198;2023-01-20T10:59:22;16.13;;;11.95;;
16880;SDS011;8557;52.068;5.198;2023-01-20T11:01:53;14.65;;;10.57;;
16880;SDS011;8557;52.068;5.198;2023-01-20T11:04:25;14.43;;;10.68;;
16880;SDS011;8557;52.068;5.198;2023-01-20T11:06:55;16.55;;;12.15;;
16880;SDS011;8557;52.068;5.198;2023-01-20T11:09:26;16.90;;;11.57;;
16880;SDS011;8557;52.068;5.198;2023-01-20T11:11:57;16.88;;;12.43;;
16880;SDS011;8557;52.068;5.198;2023-01-20T11:14:25;18.27;;;13.27;;
16880;SDS011;8557;52.068;5.198;2023-01-20T11:16:55;18.30;;;12.40;;
16880;SDS011;8557;52.068;5.198;2023-01-20T11:19:26;19.02;;;12.60;;
16880;SDS011;8557;52.068;5.198;2023-01-20T11:22:12;18.02;;;12.70;;
16880;SDS011;8557;52.068;5.198;2023-01-20T11:24:44;17.83;;;12.38;;
16880;SDS011;8557;52.068;5.198;2023-01-20T11:27:13;18.27;;;12.60;;
16880;SDS011;8557;52.068;5.198;2023-01-20T11:29:44;18.05;;;13.13;;
16880;SDS011;8557;52.068;5.198;2023-01-20T11:32:25;23.25;;;14.10;;
16880;SDS011;8557;52.068;5.198;2023-01-20T11:34:54;17.58;;;12.13;;
16880;SDS011;8557;52.068;5.198;2023-01-20T11:37:23;19.38;;;13.15;;
16880;SDS011;8557;52.068;5.198;2023-01-20T11:40:00;19.08;;;12.48;;
16880;SDS011;8557;52.068;5.198;2023-01-20T11:42:29;18.10;;;12.35;;
16880;SDS011;8557;52.068;5.198;2023-01-20T11:45:12;20.75;;;13.15;;
16880;SDS011;8557;52.068;5.198;2023-01-20T11:47:57;17.77;;;12.15;;
16880;SDS011;8557;52.068;5.198;2023-01-20T11:50:28;18.20;;;11.90;;
16880;SDS011;8557;52.068;5.198;2023-01-20T11:53:11;16.73;;;11.77;;
16880;SDS011;8557;52.068;5.198;2023-01-20T11:55:47;17.45;;;12.07;;
16880;SDS011;8557;52.068;5.198;2023-01-20T11:58:17;18.40;;;11.68;;
16880;SDS011;8557;52.068;5.198;2023-01-20T12:00:45;17.55;;;11.73;;
16880;SDS011;8557;52.068;5.198;2023-01-20T12:06:12;16.00;;;11.13;;
16880;SDS011;8557;52.068;5.198;2023-01-20T12:08:45;15.50;;;10.93;;
16880;SDS011;8557;52.068;5.198;2023-01-20T12:11:16;15.05;;;11.05;;
16880;SDS011;8557;52.068;5.198;2023-01-20T12:13:53;15.27;;;11.48;;
16880;SDS011;8557;52.068;5.198;2023-01-20T12:16:47;14.65;;;10.63;;
16880;SDS011;8557;52.068;5.198;2023-01-20T12:19:24;15.73;;;11.18;;
16880;SDS011;8557;52.068;5.198;2023-01-20T12:21:57;15.75;;;10.85;;
16880;SDS011;8557;52.068;5.198;2023-01-20T12:24:35;17.60;;;11.05;;
16880;SDS011;8557;52.068;5.198;2023-01-20T12:27:21;15.52;;;11.80;;
16880;SDS011;8557;52.068;5.198;2023-01-20T12:29:50;18.10;;;12.13;;
16880;SDS011;8557;52.068;5.198;2023-01-20T12:32:21;17.70;;;12.40;;
16880;SDS011;8557;52.068;5.198;2023-01-20T12:34:47;16.65;;;11.88;;
16880;SDS011;8557;52.068;5.198;2023-01-20T12:37:15;18.60;;;12.75;;
16880;SDS011;8557;52.068;5.198;2023-01-20T12:40:02;19.00;;;12.65;;
16880;SDS011;8557;52.068;5.198;2023-01-20T12:42:48;20.85;;;13.77;;
16880;SDS011;8557;52.068;5.198;2023-01-20T12:45:32;17.20;;;12.82;;
16880;SDS011;8557;52.068;5.198;2023-01-20T12:48:18;18.65;;;13.50;;
16880;SDS011;8557;52.068;5.198;2023-01-20T12:50:52;18.42;;;13.18;;
16880;SDS011;8557;52.068;5.198;2023-01-20T12:53:35;19.02;;;13.05;;
16880;SDS011;8557;52.068;5.198;2023-01-20T12:56:17;20.35;;;14.13;;
16880;SDS011;8557;52.068;5.198;2023-01-20T12:58:52;18.63;;;13.45;;
16880;SDS011;8557;52.068;5.198;2023-01-20T13:01:35;19.75;;;13.55;;
16880;SDS011;8557;52.068;5.198;2023-01-20T13:04:16;21.33;;;13.63;;
16880;SDS011;8557;52.068;5.198;2023-01-20T13:10:10;18.25;;;13.05;;
16880;SDS011;8557;52.068;5.198;2023-01-20T13:12:54;20.60;;;13.70;;
16880;SDS011;8557;52.068;5.198;2023-01-20T13:15:25;19.55;;;13.68;;
16880;SDS011;8557;52.068;5.198;2023-01-20T13:18:01;18.75;;;13.23;;
16880;SDS011;8557;52.068;5.198;2023-01-20T13:20:41;20.15;;;14.07;;
16880;SDS011;8557;52.068;5.198;2023-01-20T13:23:11;20.80;;;14.73;;
16880;SDS011;8557;52.068;5.198;2023-01-20T13:25:41;20.40;;;14.60;;
16880;SDS011;8557;52.068;5.198;2023-01-20T13:28:14;23.50;;;15.13;;
16880;SDS011;8557;52.068;5.198;2023-01-20T13:30:43;22.70;;;15.65;;
16880;SDS011;8557;52.068;5.198;2023-01-20T13:33:16;25.20;;;15.25;;
16880;SDS011;8557;52.068;5.198;2023-01-20T13:35:51;24.35;;;15.40;;
16880;SDS011;8557;52.068;5.198;2023-01-20T13:38:22;21.65;;;15.43;;
16880;SDS011;8557;52.068;5.198;2023-01-20T13:40:52;21.73;;;14.52;;
16880;SDS011;8557;52.068;5.198;2023-01-20T13:49:19;23.85;;;15.55;;
16880;SDS011;8557;52.068;5.198;2023-01-20T13:51:48;23.98;;;15.75;;
16880;SDS011;8557;52.068;5.198;2023-01-20T14:00:16;22.85;;;14.32;;
16880;SDS011;8557;52.068;5.198;2023-01-20T14:02:44;22.42;;;14.68;;
16880;SDS011;8557;52.068;5.198;2023-01-20T14:05:23;19.42;;;13.50;;
16880;SDS011;8557;52.068;5.198;2023-01-20T14:07:55;20.52;;;14.30;;
16880;SDS011;8557;52.068;5.198;2023-01-20T14:10:22;19.98;;;13.80;;
16880;SDS011;8557;52.068;5.198;2023-01-20T14:12:49;22.10;;;15.38;;
16880;SDS011;8557;52.068;5.198;2023-01-20T14:15:24;19.92;;;13.93;;
16880;SDS011;8557;52.068;5.198;2023-01-20T14:18:03;23.20;;;14.80;;
16880;SDS011;8557;52.068;5.198;2023-01-20T14:20:36;22.33;;;14.80;;
16880;SDS011;8557;52.068;5.198;2023-01-20T14:25:59;21.85;;;14.48;;
16880;SDS011;8557;52.068;5.198;2023-01-20T14:28:30;18.83;;;14.32;;
16880;SDS011;8557;52.068;5.198;2023-01-20T14:34:00;19.38;;;13.68;;
16880;SDS011;8557;52.068;5.198;2023-01-20T14:36:42;16.85;;;12.73;;
16880;SDS011;8557;52.068;5.198;2023-01-20T14:39:11;18.50;;;13.05;;
16880;SDS011;8557;52.068;5.198;2023-01-20T14:41:45;19.80;;;14.38;;
16880;SDS011;8557;52.068;5.198;2023-01-20T14:44:15;18.33;;;13.35;;
16880;SDS011;8557;52.068;5.198;2023-01-20T14:46:46;20.35;;;13.95;;
16880;SDS011;8557;52.068;5.198;2023-01-20T14:49:14;20.25;;;14.40;;
16880;SDS011;8557;52.068;5.198;2023-01-20T14:51:43;19.85;;;13.70;;
16880;SDS011;8557;52.068;5.198;2023-01-20T14:54:33;21.30;;;14.48;;
16880;SDS011;8557;52.068;5.198;2023-01-20T14:57:11;20.13;;;14.25;;
16880;SDS011;8557;52.068;5.198;2023-01-20T14:59:57;16.35;;;12.70;;
16880;SDS011;8557;52.068;5.198;2023-01-20T15:02:36;20.38;;;14.25;;
16880;SDS011;8557;52.068;5.198;2023-01-20T15:05:16;19.33;;;13.60;;
16880;SDS011;8557;52.068;5.198;2023-01-20T15:08:02;20.25;;;13.07;;
16880;SDS011;8557;52.068;5.198;2023-01-20T15:10:42;19.73;;;13.77;;
16880;SDS011;8557;52.068;5.198;2023-01-20T15:13:20;19.48;;;13.80;;
16880;SDS011;8557;52.068;5.198;2023-01-20T15:15:48;20.05;;;13.75;;
16880;SDS011;8557;52.068;5.198;2023-01-20T15:18:17;17.92;;;12.85;;
16880;SDS011;8557;52.068;5.198;2023-01-20T15:20:47;20.48;;;13.23;;
16880;SDS011;8557;52.068;5.198;2023-01-20T15:23:17;18.65;;;13.07;;